Time;durP1;ratioP1;P1;durP2;ratioP2;P2;SDS_P1;SDS_P2;PMS_P1;PMS_P2;Temp;Humidity;BMP_temperature;BMP_pressure;BME280_temperature;BME280_humidity;BME280_pressure;Samples;Min_cycle;Max_cycle;Signal;HPM_P1;HPM_P2
2023/10/15 00:01:52;;;;;;;3.88;1.85;;;10.10;91.20;;;;;;5118984;27;20057;-82
2023/10/15 00:04:17;;;;;;;5.25;1.98;;;10.10;91.20;;;;;;5118750;27;20042;-82
2023/10/15 00:06:43;;;;;;;4.32;1.92;;;10.10;91.30;;;;;;5101425;27;20027;-82
2023/10/15 00:09:09;;;;;;;5.65;2.15;;;10.10;91.30;;;;;;5135532;27;20072;-81
2023/10/15 00:11:35;;;;;;;4.05;2.38;;;10.20;91.40;;;;;;5101616;27;20034;-82
2023/10/15 00:14:03;;;;;;;5.43;2.45;;;10.30;91.40;;;;;;5118351;27;20023;-82
2023/10/15 00:16:29;;;;;;;5.78;2.42;;;10.30;91.20;;;;;;5135555;27;20516;-82
2023/10/15 00:18:56;;;;;;;7.15;2.53;;;10.40;91.20;;;;;;5118335;27;20119;-82
2023/10/15 00:21:21;;;;;;;5.22;2.20;;;10.50;91.10;;;;;;5118344;27;20027;-82
2023/10/15 00:23:47;;;;;;;5.40;2.30;;;10.60;90.90;;;;;;5101340;27;20027;-82
2023/10/15 00:26:14;;;;;;;5.65;2.58;;;10.70;90.80;;;;;;5100909;27;20031;-82
2023/10/15 00:28:40;;;;;;;5.10;2.45;;;10.80;90.60;;;;;;5118297;27;20027;-82
2023/10/15 00:31:11;;;;;;;8.52;2.40;;;10.90;90.50;;;;;;5135665;27;20057;-82
2023/10/15 00:33:42;;;;;;;7.28;2.53;;;11.00;90.40;;;;;;5136602;27;20365;-82
2023/10/15 00:36:13;;;;;;;6.53;2.47;;;11.10;90.20;;;;;;5102391;27;20027;-82
2023/10/15 00:38:43;;;;;;;6.13;2.72;;;11.10;90.10;;;;;;5135257;27;20496;-82
2023/10/15 00:41:13;;;;;;;5.03;2.45;;;11.10;89.80;;;;;;5118480;27;20128;-82
2023/10/15 00:43:58;;;;;;;3.78;2.03;;;11.10;89.80;;;;;;5134974;27;20026;-82
2023/10/15 00:46:28;;;;;;;6.47;2.33;;;11.10;89.80;;;;;;5134999;27;20088;-82
2023/10/15 00:49:02;;;;;;;4.93;2.10;;;11.10;89.70;;;;;;5134702;27;20120;-82
2023/10/15 00:51:27;;;;;;;5.93;2.15;;;11.20;89.80;;;;;;5118753;27;20019;-82
2023/10/15 00:53:55;;;;;;;5.28;2.22;;;11.20;89.60;;;;;;5136163;27;20030;-82
2023/10/15 00:56:26;;;;;;;6.10;2.38;;;11.20;89.60;;;;;;5134627;27;20126;-82
2023/10/15 01:01:26;;;;;;;5.15;2.08;;;11.30;89.70;;;;;;5134824;27;20039;-82
2023/10/15 01:04:10;;;;;;;4.97;2.30;;;11.30;89.60;;;;;;5134908;27;20023;-82
2023/10/15 01:06:41;;;;;;;7.10;2.38;;;11.30;89.40;;;;;;5134305;27;20030;-82
2023/10/15 01:09:19;;;;;;;3.90;2.10;;;11.30;89.40;;;;;;5135685;27;20019;-82
2023/10/15 01:11:56;;;;;;;7.05;2.00;;;11.30;89.40;;;;;;5134218;27;20023;-82
2023/10/15 01:14:32;;;;;;;5.53;2.50;;;11.10;89.50;;;;;;5134382;27;20012;-82
2023/10/15 01:17:02;;;;;;;5.68;2.30;;;11.10;89.80;;;;;;5134266;27;20392;-82
2023/10/15 01:19:33;;;;;;;4.57;1.90;;;11.10;89.80;;;;;;5134343;27;20105;-82
2023/10/15 01:22:09;;;;;;;5.55;2.00;;;11.00;90.30;;;;;;5134205;27;20089;-82
2023/10/15 01:24:37;;;;;;;6.85;1.80;;;11.00;90.30;;;;;;5134145;27;20496;-82
2023/10/15 01:27:11;;;;;;;3.92;2.00;;;11.00;90.40;;;;;;5133769;27;20035;-82
2023/10/15 01:29:40;;;;;;;7.63;2.22;;;11.10;90.70;;;;;;5117816;27;20023;-82
2023/10/15 01:32:19;;;;;;;5.22;2.42;;;11.10;90.70;;;;;;5134138;27;20022;-82
2023/10/15 01:34:45;;;;;;;7.28;2.40;;;11.10;90.80;;;;;;5118456;27;20023;-82
2023/10/15 01:39:49;;;;;;;4.15;1.95;;;10.90;91.20;;;;;;5134001;27;20035;-81
2023/10/15 01:50:33;;;;;;;7.25;2.22;;;11.10;91.70;;;;;;5133552;27;20051;-82
2023/10/15 01:53:02;;;;;;;4.07;2.30;;;11.10;91.60;;;;;;5118549;27;20023;-82
2023/10/15 01:55:29;;;;;;;3.85;2.13;;;11.00;91.70;;;;;;5134695;27;20100;-82
2023/10/15 01:58:00;;;;;;;3.72;1.77;;;11.00;91.80;;;;;;5133478;27;20570;-82
2023/10/15 02:03:07;;;;;;;4.68;2.08;;;10.80;92.20;;;;;;5133378;27;20035;-82
2023/10/15 02:05:42;;;;;;;5.07;2.10;;;10.80;91.90;;;;;;5116330;27;20122;-82
2023/10/15 02:08:16;;;;;;;4.88;2.40;;;10.80;92.00;;;;;;5133105;27;20027;-82
2023/10/15 02:10:46;;;;;;;5.82;2.40;;;10.70;92.00;;;;;;5133129;27;20064;-82
2023/10/15 02:13:15;;;;;;;3.92;1.80;;;10.50;92.50;;;;;;5133018;27;20034;-82
2023/10/15 02:15:42;;;;;;;5.05;2.25;;;10.50;92.20;;;;;;5133329;27;20028;-82
2023/10/15 02:18:13;;;;;;;6.35;2.10;;;10.40;92.40;;;;;;5116011;27;20472;-82
2023/10/15 02:23:19;;;;;;;7.03;2.03;;;10.40;92.40;;;;;;5134287;27;20478;-82
2023/10/15 02:25:58;;;;;;;5.40;2.33;;;10.40;92.60;;;;;;5115763;27;20515;-82
2023/10/15 02:28:46;;;;;;;3.13;2.38;;;10.40;92.70;;;;;;5117140;27;20038;-82
2023/10/15 02:31:18;;;;;;;4.63;2.05;;;10.40;92.80;;;;;;5111669;27;20385;-82
2023/10/15 02:33:44;;;;;;;5.10;2.10;;;10.50;92.80;;;;;;5083120;27;20019;-82
2023/10/15 02:36:10;;;;;;;7.93;2.67;;;10.60;92.80;;;;;;5115749;27;20016;-82
2023/10/15 02:38:36;;;;;;;3.72;2.45;;;10.60;92.80;;;;;;5115369;27;20054;-82
2023/10/15 02:43:30;;;;;;;7.07;3.00;;;10.70;92.90;;;;;;5115574;27;20434;-82
2023/10/15 02:46:12;;;;;;;5.05;2.20;;;10.70;92.90;;;;;;5115503;27;20403;-82
2023/10/15 02:48:41;;;;;;;6.93;2.33;;;10.80;93.00;;;;;;5100890;27;20043;-82
2023/10/15 02:51:08;;;;;;;7.40;1.98;;;10.80;93.00;;;;;;5115403;28;20026;-82
2023/10/15 02:53:49;;;;;;;3.42;1.92;;;10.80;93.00;;;;;;5098193;28;20034;-82
2023/10/15 02:56:15;;;;;;;11.43;2.58;;;10.80;93.00;;;;;;5115282;27;20481;-81
2023/10/15 02:58:43;;;;;;;3.28;1.85;;;10.80;93.10;;;;;;5081731;28;20055;-82
2023/10/15 03:01:17;;;;;;;5.57;2.03;;;10.90;93.00;;;;;;5098659;28;20499;-82
2023/10/15 03:03:56;;;;;;;4.05;1.50;;;10.90;93.00;;;;;;5099508;28;20023;-82
2023/10/15 03:06:31;;;;;;;5.68;1.50;;;10.90;93.00;;;;;;5081604;28;20059;-82
2023/10/15 03:08:57;;;;;;;4.13;1.50;;;10.80;92.80;;;;;;5099465;28;20023;-82
2023/10/15 03:11:24;;;;;;;5.07;1.40;;;10.50;92.90;;;;;;5098290;28;20023;-82
2023/10/15 03:13:53;;;;;;;4.40;1.42;;;10.50;93.30;;;;;;5098503;28;20020;-82
2023/10/15 03:16:25;;;;;;;2.33;1.00;;;10.50;93.20;;;;;;5115932;28;20054;-82
2023/10/15 03:18:52;;;;;;;2.70;0.90;;;10.30;93.40;;;;;;5098884;28;20050;-81
2023/10/15 03:21:30;;;;;;;2.53;1.00;;;10.30;93.40;;;;;;5098339;28;20380;-81
2023/10/15 03:23:57;;;;;;;2.28;1.10;;;10.20;93.60;;;;;;5133523;28;20042;-81
2023/10/15 03:26:34;;;;;;;2.13;0.93;;;10.10;93.80;;;;;;5114732;28;20076;-81
2023/10/15 03:29:00;;;;;;;3.65;1.33;;;10.00;94.00;;;;;;5115160;28;20027;-81
2023/10/15 03:31:31;;;;;;;2.58;1.30;;;10.00;94.30;;;;;;5098264;28;20058;-81
2023/10/15 03:34:04;;;;;;;2.13;1.13;;;9.90;94.60;;;;;;5081925;28;20472;-81
2023/10/15 03:36:43;;;;;;;;;;;9.80;94.80;;;;;;5099298;28;20385;-81
2023/10/15 03:39:15;;;;;;;1.95;1.10;;;9.60;95.40;;;;;;5117365;28;19933;-81
2023/10/15 03:41:41;;;;;;;5.20;1.77;;;9.60;95.50;;;;;;5114940;28;20015;-81
2023/10/15 03:44:10;;;;;;;2.35;1.50;;;9.50;95.80;;;;;;5133327;28;20023;-81
2023/10/15 03:46:37;;;;;;;2.30;1.13;;;9.60;95.90;;;;;;5098318;28;20123;-81
2023/10/15 03:49:10;;;;;;;2.60;1.20;;;9.60;95.70;;;;;;5097406;28;20276;-81
2023/10/15 03:51:48;;;;;;;1.35;0.80;;;9.50;95.80;;;;;;5114806;28;20035;-81
2023/10/15 03:54:14;;;;;;;2.05;0.75;;;9.50;95.70;;;;;;5114733;28;20027;-81
2023/10/15 03:56:43;;;;;;;1.50;0.73;;;9.40;95.70;;;;;;5097785;28;20551;-81
2023/10/15 03:59:12;;;;;;;1.70;0.60;;;9.40;96.10;;;;;;5133305;28;20073;-81
2023/10/15 04:01:47;;;;;;;1.88;0.85;;;9.40;96.20;;;;;;5114851;28;20382;-81
2023/10/15 04:04:16;;;;;;;0.60;0.50;;;9.40;96.20;;;;;;5116196;28;20023;-81
2023/10/15 04:06:45;;;;;;;1.20;0.60;;;9.40;95.90;;;;;;5083961;27;20027;-81
2023/10/15 04:09:13;;;;;;;1.70;0.70;;;9.40;95.80;;;;;;5118451;27;20078;-81
2023/10/15 04:11:47;;;;;;;1.17;0.65;;;9.40;96.00;;;;;;5119002;27;20047;-81
2023/10/15 04:14:28;;;;;;;1.58;0.50;;;9.50;95.90;;;;;;5087130;27;20472;-81
2023/10/15 04:16:57;;;;;;;1.25;0.45;;;9.60;95.70;;;;;;5118204;27;20480;-81
2023/10/15 04:19:25;;;;;;;1.00;0.50;;;9.60;95.60;;;;;;5118417;27;20023;-81
2023/10/15 04:21:53;;;;;;;0.73;0.40;;;9.60;95.30;;;;;;5102252;27;20365;-81
2023/10/15 04:24:28;;;;;;;1.33;0.40;;;9.60;95.40;;;;;;5101499;27;20035;-81
2023/10/15 04:26:54;;;;;;;1.95;0.50;;;9.60;95.40;;;;;;5136340;27;20039;-81
2023/10/15 04:29:21;;;;;;;3.13;0.73;;;9.60;95.10;;;;;;5101280;27;20031;-81
2023/10/15 04:32:00;;;;;;;0.88;0.30;;;9.70;94.80;;;;;;5101193;27;20408;-81
2023/10/15 04:34:29;;;;;;;1.10;0.32;;;9.80;94.70;;;;;;5102584;27;20118;-81
2023/10/15 04:36:57;;;;;;;0.82;0.45;;;9.80;94.70;;;;;;5136163;27;20037;-81
2023/10/15 04:39:24;;;;;;;0.98;0.40;;;9.90;94.80;;;;;;5118583;27;20552;-81
2023/10/15 04:41:55;;;;;;;1.15;0.50;;;10.00;94.80;;;;;;5117701;27;20057;-81
2023/10/15 04:44:31;;;;;;;1.10;0.40;;;9.90;94.60;;;;;;5085063;27;20492;-81
2023/10/15 04:47:05;;;;;;;1.90;0.35;;;9.90;94.60;;;;;;5102246;27;20106;-81
2023/10/15 04:49:33;;;;;;;0.98;0.50;;;9.90;94.70;;;;;;5118545;27;20108;-81
2023/10/15 04:52:00;;;;;;;1.08;0.30;;;9.90;94.70;;;;;;5117601;27;20015;-81
2023/10/15 04:54:26;;;;;;;1.20;0.57;;;9.90;94.70;;;;;;5136184;27;20412;-81
2023/10/15 04:56:54;;;;;;;0.80;0.32;;;10.00;94.70;;;;;;5100501;27;20434;-81
2023/10/15 04:59:20;;;;;;;2.35;0.40;;;10.00;94.70;;;;;;5117580;27;20019;-81
2023/10/15 05:01:48;;;;;;;0.45;0.32;;;10.00;94.70;;;;;;5100535;27;20545;-81
2023/10/15 05:04:14;;;;;;;1.83;0.40;;;10.00;94.80;;;;;;5100659;27;20027;-81
2023/10/15 05:06:39;;;;;;;2.25;0.60;;;10.00;94.80;;;;;;5117320;27;20063;-81
2023/10/15 05:09:09;;;;;;;0.93;0.50;;;9.90;94.80;;;;;;5083491;27;20019;-81
2023/10/15 05:11:35;;;;;;;0.98;0.47;;;10.00;94.80;;;;;;5100911;27;20027;-81
2023/10/15 05:14:00;;;;;;;1.67;0.52;;;10.00;94.70;;;;;;5117496;27;20029;-81
2023/10/15 05:16:26;;;;;;;1.30;0.57;;;10.00;94.60;;;;;;5116764;27;20098;-81
2023/10/15 05:18:52;;;;;;;1.15;0.63;;;10.10;94.40;;;;;;5100064;27;20038;-81
2023/10/15 05:21:17;;;;;;;2.40;0.32;;;9.90;94.40;;;;;;5083190;27;20110;-81
2023/10/15 05:23:45;;;;;;;3.03;0.82;;;9.80;94.40;;;;;;5100114;27;20027;-81
2023/10/15 05:26:11;;;;;;;0.75;0.50;;;9.80;94.40;;;;;;5117437;27;20038;-81
2023/10/15 05:28:37;;;;;;;2.67;0.47;;;9.70;94.40;;;;;;5117113;27;20027;-81
2023/10/15 05:31:03;;;;;;;2.58;0.50;;;9.50;94.60;;;;;;5083102;27;20389;-81
2023/10/15 05:33:30;;;;;;;0.85;0.60;;;9.50;94.60;;;;;;5083060;27;20030;-81
2023/10/15 05:35:56;;;;;;;2.20;0.50;;;9.30;94.70;;;;;;5100226;27;20030;-81
2023/10/15 05:38:22;;;;;;;2.55;0.50;;;9.40;94.70;;;;;;5116862;27;20112;-81
2023/10/15 05:40:57;;;;;;;1.20;0.50;;;9.40;94.70;;;;;;5082854;27;20059;-81
2023/10/15 05:43:22;;;;;;;5.47;0.60;;;9.40;94.70;;;;;;5134898;27;20487;-81
2023/10/15 05:45:48;;;;;;;1.95;0.68;;;9.50;94.70;;;;;;5082838;27;20110;-81
2023/10/15 05:48:15;;;;;;;1.27;0.50;;;9.50;94.80;;;;;;5099343;27;20055;-81
2023/10/15 05:50:41;;;;;;;1.67;0.82;;;9.50;94.70;;;;;;5117059;27;20027;-81
2023/10/15 05:53:07;;;;;;;2.90;0.70;;;9.50;94.80;;;;;;5099453;27;20034;-81
2023/10/15 05:55:33;;;;;;;1.80;0.60;;;9.60;94.80;;;;;;5116363;27;20027;-81
2023/10/15 05:57:58;;;;;;;1.42;0.68;;;9.60;95.10;;;;;;5082429;27;20502;-81
2023/10/15 06:00:26;;;;;;;0.95;0.50;;;9.60;94.70;;;;;;5082448;27;20030;-81
2023/10/15 06:02:56;;;;;;;1.20;0.55;;;9.60;94.60;;;;;;5116767;27;20038;-81
2023/10/15 06:05:22;;;;;;;1.98;0.73;;;9.60;94.30;;;;;;5134369;27;20122;-81
2023/10/15 06:07:49;;;;;;;2.03;0.80;;;9.50;94.20;;;;;;5099043;27;20515;-81
2023/10/15 06:10:15;;;;;;;3.30;0.90;;;9.40;94.30;;;;;;5116066;27;20112;-81
2023/10/15 06:12:42;;;;;;;2.33;0.88;;;9.30;94.50;;;;;;5116175;27;20028;-81
2023/10/15 06:15:09;;;;;;;1.60;0.80;;;9.30;94.80;;;;;;5099054;27;20019;-81
2023/10/15 06:17:35;;;;;;;1.55;1.02;;;9.20;95.10;;;;;;5098893;27;20518;-82
2023/10/15 06:20:12;;;;;;;1.08;0.88;;;9.10;95.20;;;;;;5116093;27;20023;-82
2023/10/15 06:22:42;;;;;;;3.47;1.20;;;9.10;95.30;;;;;;5111073;27;20114;-82
2023/10/15 06:25:09;;;;;;;2.67;1.20;;;9.10;95.30;;;;;;5099455;27;20058;-81
2023/10/15 06:27:36;;;;;;;2.22;1.27;;;9.20;95.50;;;;;;5098431;27;20027;-82
2023/10/15 06:30:07;;;;;;;3.40;1.20;;;9.30;95.60;;;;;;5115219;27;20023;-81
2023/10/15 06:32:34;;;;;;;2.83;1.10;;;9.30;95.70;;;;;;5098837;27;20023;-81
2023/10/15 06:34:59;;;;;;;3.15;1.23;;;9.40;95.70;;;;;;5099566;27;20027;-81
2023/10/15 06:37:26;;;;;;;2.63;1.45;;;9.40;95.80;;;;;;5135375;27;20399;-81
2023/10/15 06:39:52;;;;;;;2.10;1.13;;;9.50;95.70;;;;;;5116134;27;20041;-81
2023/10/15 06:42:17;;;;;;;2.42;1.10;;;9.50;96.00;;;;;;5083021;27;20023;-81
2023/10/15 06:44:43;;;;;;;0.80;0.70;;;9.60;95.70;;;;;;5135417;27;20027;-81
2023/10/15 06:47:09;;;;;;;1.88;1.00;;;9.50;95.90;;;;;;5099726;27;20102;-81
2023/10/15 06:49:35;;;;;;;1.90;0.77;;;9.50;95.80;;;;;;5065361;27;20108;-81
2023/10/15 06:52:03;;;;;;;1.33;0.90;;;9.60;95.80;;;;;;5100154;27;20027;-80
2023/10/15 06:54:29;;;;;;;8.15;1.80;;;9.60;95.90;;;;;;5082993;28;20023;-81
2023/10/15 06:56:54;;;;;;;2.13;1.02;;;9.60;95.90;;;;;;5081860;27;20030;-81
2023/10/15 06:59:20;;;;;;;1.80;0.60;;;9.60;95.70;;;;;;5115299;27;20359;-81
2023/10/15 07:01:46;;;;;;;2.38;0.80;;;9.60;95.70;;;;;;5134078;27;20038;-81
2023/10/15 07:04:12;;;;;;;1.15;0.80;;;9.70;95.80;;;;;;5098633;28;20024;-81
2023/10/15 07:06:39;;;;;;;2.10;0.70;;;9.70;95.80;;;;;;5098523;28;20019;-81
2023/10/15 07:09:06;;;;;;;1.30;0.63;;;9.70;95.90;;;;;;5083046;27;20035;-81
2023/10/15 07:11:32;;;;;;;3.20;1.35;;;9.80;96.00;;;;;;5116115;28;20026;-81
2023/10/15 07:13:58;;;;;;;3.35;1.00;;;9.80;96.00;;;;;;5116512;28;20028;-81
2023/10/15 07:16:25;;;;;;;2.47;1.00;;;9.80;96.00;;;;;;5082409;28;20019;-81
2023/10/15 07:18:54;;;;;;;1.75;0.90;;;9.90;96.00;;;;;;5099358;28;20034;-81
2023/10/15 07:21:19;;;;;;;3.58;1.00;;;9.90;95.90;;;;;;5134467;27;20069;-81
2023/10/15 07:23:45;;;;;;;1.75;0.70;;;9.90;96.00;;;;;;5116042;27;20031;-81
2023/10/15 07:26:11;;;;;;;1.38;0.82;;;10.00;96.00;;;;;;5098993;28;20430;-81
2023/10/15 07:28:37;;;;;;;1.23;0.70;;;10.00;96.00;;;;;;5115694;28;20027;-81
2023/10/15 07:31:05;;;;;;;1.40;0.60;;;10.00;96.00;;;;;;5098913;28;20035;-81
2023/10/15 07:33:31;;;;;;;2.08;0.80;;;10.00;96.00;;;;;;5116528;28;20326;-81
2023/10/15 07:35:59;;;;;;;3.67;0.95;;;10.00;96.00;;;;;;5099270;28;20076;-81
2023/10/15 07:38:24;;;;;;;1.50;0.80;;;10.00;96.00;;;;;;5116681;27;20078;-81
2023/10/15 07:40:55;;;;;;;2.15;0.88;;;10.00;96.20;;;;;;5102345;27;20504;-81
2023/10/15 07:43:21;;;;;;;1.85;0.80;;;10.00;96.10;;;;;;5103544;27;20025;-81
2023/10/15 07:45:47;;;;;;;3.45;0.63;;;10.00;96.20;;;;;;5120051;27;20100;-81
2023/10/15 07:48:13;;;;;;;3.28;0.85;;;10.00;96.20;;;;;;5102402;27;20038;-81
2023/10/15 07:50:45;;;;;;;1.63;0.70;;;10.00;96.20;;;;;;5120460;27;20031;-81
2023/10/15 07:53:12;;;;;;;2.60;0.93;;;10.00;96.30;;;;;;5103491;27;20557;-81
2023/10/15 07:55:37;;;;;;;1.40;0.80;;;10.00;96.30;;;;;;5119467;27;20045;-82
2023/10/15 07:58:03;;;;;;;4.22;0.93;;;9.90;96.30;;;;;;5103038;27;20387;-81
2023/10/15 08:00:33;;;;;;;0.82;0.50;;;10.00;96.50;;;;;;5118572;27;20388;-81
2023/10/15 08:03:00;;;;;;;10.07;1.00;;;10.00;96.40;;;;;;5102816;27;20023;-81
2023/10/15 08:05:27;;;;;;;1.00;0.63;;;10.10;96.20;;;;;;5101479;27;20049;-81
2023/10/15 08:07:54;;;;;;;4.15;0.95;;;10.10;96.20;;;;;;5118168;27;20031;-81
2023/10/15 08:10:21;;;;;;;1.73;0.80;;;10.10;96.20;;;;;;5118208;27;20472;-81
2023/10/15 08:12:48;;;;;;;1.42;0.80;;;10.10;96.30;;;;;;5118390;27;20023;-81
2023/10/15 08:15:14;;;;;;;3.80;0.90;;;10.20;96.30;;;;;;5118335;27;20019;-81
2023/10/15 08:17:40;;;;;;;2.20;0.70;;;10.20;96.30;;;;;;5118378;27;20489;-81
2023/10/15 08:20:09;;;;;;;2.63;0.88;;;10.20;96.20;;;;;;5101179;27;20027;-81
2023/10/15 08:22:35;;;;;;;2.28;0.63;;;10.30;96.30;;;;;;5118165;27;20159;-81
2023/10/15 08:25:02;;;;;;;1.80;0.50;;;10.30;96.30;;;;;;5101140;27;20542;-81
2023/10/15 08:27:28;;;;;;;1.85;0.80;;;10.40;96.20;;;;;;5100912;27;20042;-82
2023/10/15 08:29:53;;;;;;;1.15;0.70;;;10.40;96.20;;;;;;5101270;27;20480;-81
2023/10/15 08:32:20;;;;;;;0.98;0.80;;;10.50;96.10;;;;;;5084301;27;20023;-82
2023/10/15 08:34:47;;;;;;;1.35;0.70;;;10.50;96.00;;;;;;5100949;27;20106;-81
2023/10/15 08:37:13;;;;;;;6.25;1.10;;;10.50;95.90;;;;;;5118033;27;20058;-81
2023/10/15 08:39:39;;;;;;;1.10;0.55;;;10.60;95.90;;;;;;5136209;27;20027;-82
2023/10/15 08:42:20;;;;;;;3.70;0.70;;;10.60;95.90;;;;;;5117828;27;20031;-81
2023/10/15 08:44:49;;;;;;;3.65;1.05;;;10.60;95.90;;;;;;5117863;27;20041;-81
2023/10/15 08:47:16;;;;;;;2.33;0.82;;;10.70;95.90;;;;;;5117461;27;20038;-81
2023/10/15 08:49:52;;;;;;;3.17;0.65;;;10.80;95.80;;;;;;5100509;27;20052;-81
2023/10/15 08:52:22;;;;;;;3.20;0.90;;;10.80;95.70;;;;;;5116744;27;20064;-81
2023/10/15 08:54:49;;;;;;;3.05;0.90;;;10.80;95.50;;;;;;5100908;27;20105;-81
2023/10/15 08:57:15;;;;;;;3.22;0.77;;;10.80;95.80;;;;;;5117597;27;20495;-81
2023/10/15 08:59:43;;;;;;;4.72;1.17;;;10.80;95.50;;;;;;5117421;27;20027;-82
2023/10/15 09:02:09;;;;;;;3.47;0.80;;;10.80;95.40;;;;;;5117548;27;20411;-81
2023/10/15 09:04:35;;;;;;;2.45;0.63;;;10.80;95.50;;;;;;5117399;27;20027;-81
2023/10/15 09:07:02;;;;;;;3.90;0.80;;;10.80;95.40;;;;;;5100505;27;20032;-81
2023/10/15 09:09:33;;;;;;;2.28;0.90;;;10.80;95.40;;;;;;5117380;27;20019;-81
2023/10/15 09:12:06;;;;;;;1.45;0.75;;;10.80;95.40;;;;;;5083554;27;20182;-81
2023/10/15 09:14:44;;;;;;;2.03;0.77;;;10.90;95.50;;;;;;5100673;27;20385;-81
2023/10/15 09:17:11;;;;;;;3.28;0.80;;;10.90;95.60;;;;;;5117186;27;20588;-81
2023/10/15 09:19:41;;;;;;;1.67;0.65;;;10.80;95.40;;;;;;5135341;27;20055;-82
2023/10/15 09:22:08;;;;;;;1.75;0.70;;;10.80;95.40;;;;;;5100342;27;20040;-81
2023/10/15 09:24:34;;;;;;;3.38;0.95;;;10.90;95.70;;;;;;5117022;27;20110;-81
2023/10/15 09:27:00;;;;;;;2.50;0.68;;;11.00;95.70;;;;;;5100045;27;20059;-81
2023/10/15 09:29:30;;;;;;;1.55;0.55;;;11.00;95.60;;;;;;5083288;27;20016;-81
2023/10/15 09:31:56;;;;;;;1.38;0.50;;;11.00;95.40;;;;;;5135347;27;20114;-82
2023/10/15 09:34:26;;;;;;;2.72;0.77;;;11.00;94.90;;;;;;5100346;27;20027;-82
2023/10/15 09:36:51;;;;;;;2.92;0.55;;;11.10;95.10;;;;;;5083730;27;20038;-82
2023/10/15 09:39:17;;;;;;;2.63;0.57;;;11.10;95.30;;;;;;5083263;27;20023;-82
2023/10/15 09:41:43;;;;;;;1.20;0.50;;;11.20;95.10;;;;;;5082611;27;20027;-82
2023/10/15 09:44:14;;;;;;;1.50;0.70;;;11.20;94.90;;;;;;5099562;27;20023;-82
2023/10/15 09:46:45;;;;;;;2.55;0.80;;;11.30;94.50;;;;;;5099855;27;20035;-82
2023/10/15 09:49:13;;;;;;;1.02;0.60;;;11.30;94.40;;;;;;5116437;27;20047;-81
2023/10/15 09:51:40;;;;;;;1.95;0.50;;;11.30;94.50;;;;;;5134974;27;20429;-82
2023/10/15 09:54:13;;;;;;;1.38;0.60;;;11.30;94.40;;;;;;5116367;27;20068;-82
2023/10/15 09:56:41;;;;;;;2.03;0.47;;;11.30;94.00;;;;;;5100148;27;20031;-82
2023/10/15 09:59:07;;;;;;;2.38;0.50;;;11.30;94.10;;;;;;5116822;27;20024;-82
2023/10/15 10:01:36;;;;;;;3.55;0.70;;;11.30;94.00;;;;;;5082910;27;20500;-82
2023/10/15 10:04:18;;;;;;;1.63;0.60;;;11.40;94.10;;;;;;5115355;27;20062;-82
2023/10/15 10:06:47;;;;;;;3.35;0.50;;;11.40;94.00;;;;;;5116151;27;20507;-82
2023/10/15 10:09:21;;;;;;;2.90;0.80;;;11.60;94.00;;;;;;5116659;27;20110;-82
2023/10/15 10:12:06;;;;;;;2.15;0.40;;;11.80;94.10;;;;;;5116218;27;20079;-82
2023/10/15 10:14:53;;;;;;;1.77;0.63;;;11.90;94.00;;;;;;5134279;27;20018;-82
2023/10/15 10:17:20;;;;;;;1.80;0.60;;;12.10;93.60;;;;;;5115798;27;20039;-82
2023/10/15 10:19:52;;;;;;;3.95;0.70;;;12.20;93.30;;;;;;5115819;27;20155;-82
2023/10/15 10:22:25;;;;;;;2.67;0.70;;;12.30;93.10;;;;;;5115809;27;20015;-82
2023/10/15 10:24:52;;;;;;;1.83;0.52;;;12.30;92.70;;;;;;5115699;27;20468;-82
2023/10/15 10:27:18;;;;;;;1.05;0.50;;;12.30;92.60;;;;;;5115517;27;20031;-82
2023/10/15 10:29:50;;;;;;;1.48;0.40;;;12.30;92.80;;;;;;5134074;27;20027;-82
2023/10/15 10:32:17;;;;;;;1.60;0.47;;;12.20;92.50;;;;;;5115735;27;20026;-82
2023/10/15 10:34:45;;;;;;;1.55;0.50;;;12.20;92.70;;;;;;5115759;27;20019;-82
2023/10/15 10:37:23;;;;;;;1.02;0.30;;;12.10;92.80;;;;;;5099050;27;20080;-81
2023/10/15 10:39:49;;;;;;;3.40;0.45;;;12.00;92.80;;;;;;5082114;27;20387;-82
2023/10/15 10:42:26;;;;;;;2.05;0.52;;;12.00;92.90;;;;;;5098814;27;20027;-82
2023/10/15 10:44:59;;;;;;;1.17;0.38;;;12.00;92.70;;;;;;5116081;27;20031;-81
2023/10/15 10:47:33;;;;;;;1.92;0.40;;;12.00;92.80;;;;;;5099292;27;20031;-81
2023/10/15 10:50:03;;;;;;;1.40;0.52;;;12.00;93.40;;;;;;5098974;27;20043;-82
2023/10/15 10:52:36;;;;;;;3.65;0.30;;;12.00;93.00;;;;;;5115392;27;20481;-82
2023/10/15 10:55:33;;;;;;;2.30;0.30;;;12.10;93.10;;;;;;5098990;27;20045;-82
2023/10/15 10:58:21;;;;;;;1.83;0.30;;;12.10;93.20;;;;;;5115290;28;20066;-82
2023/10/15 11:00:47;;;;;;;1.10;0.20;;;12.20;93.20;;;;;;5115287;28;20424;-82
2023/10/15 11:03:13;;;;;;;1.13;0.30;;;12.40;92.80;;;;;;5098280;28;20051;-82
2023/10/15 11:05:38;;;;;;;0.38;0.28;;;12.50;92.70;;;;;;5098388;28;20027;-82
2023/10/15 11:08:15;;;;;;;1.80;0.40;;;12.60;92.50;;;;;;5081204;27;20019;-82
2023/10/15 11:10:44;;;;;;;2.42;0.45;;;12.60;91.20;;;;;;5115177;28;20075;-82
2023/10/15 11:13:10;;;;;;;2.05;0.45;;;12.60;91.90;;;;;;5082238;28;20019;-82
2023/10/15 11:15:36;;;;;;;1.77;0.50;;;12.70;91.30;;;;;;5100758;27;20019;-82
2023/10/15 11:18:05;;;;;;;2.80;0.80;;;12.70;90.50;;;;;;5119218;27;20027;-82
2023/10/15 11:20:33;;;;;;;4.65;0.40;;;12.70;90.90;;;;;;5102985;27;20569;-82
2023/10/15 11:23:03;;;;;;;1.92;0.93;;;12.80;91.20;;;;;;5085874;27;20138;-82
2023/10/15 11:25:29;;;;;;;2.30;0.38;;;12.90;90.70;;;;;;5086467;27;20072;-82
2023/10/15 11:27:55;;;;;;;1.27;0.47;;;13.00;90.50;;;;;;5085203;27;20045;-82
2023/10/15 11:30:21;;;;;;;2.65;0.50;;;12.80;89.10;;;;;;5102299;27;20023;-82
2023/10/15 11:32:47;;;;;;;1.13;0.30;;;12.80;90.30;;;;;;5102415;27;20034;-82
2023/10/15 11:35:17;;;;;;;0.95;0.40;;;12.90;90.60;;;;;;5102231;27;20023;-82
2023/10/15 11:37:44;;;;;;;2.13;0.50;;;13.00;90.30;;;;;;5137374;27;20385;-82
2023/10/15 11:40:11;;;;;;;1.90;0.60;;;13.10;89.60;;;;;;5137250;27;20023;-82
2023/10/15 11:42:50;;;;;;;1.35;0.45;;;13.00;86.70;;;;;;5102158;27;20049;-82
2023/10/15 11:45:30;;;;;;;1.15;0.40;;;13.00;90.00;;;;;;5102392;27;20024;-82
2023/10/15 11:47:58;;;;;;;1.88;0.70;;;13.00;88.80;;;;;;5118803;27;20031;-82
2023/10/15 11:50:24;;;;;;;1.60;0.60;;;13.00;89.80;;;;;;5098225;28;20051;-82
2023/10/15 11:52:52;;;;;;;3.17;0.70;;;13.10;90.10;;;;;;5115304;28;20034;-82
2023/10/15 11:55:28;;;;;;;1.77;0.70;;;13.30;89.70;;;;;;5115416;28;20495;-82
2023/10/15 11:57:54;;;;;;;0.90;0.50;;;13.40;90.10;;;;;;5098781;28;20036;-82
2023/10/15 12:00:56;;;;;;;0.82;0.60;;;13.50;90.10;;;;;;5098491;28;20035;-82
2023/10/15 12:03:16;;;;;;;1.90;0.50;;;13.60;89.40;;;;;;5113341;28;20032;-82
2023/10/15 12:05:42;;;;;;;1.90;0.60;;;13.60;88.60;;;;;;5114715;28;20084;-82
2023/10/15 12:08:08;;;;;;;1.83;0.68;;;13.60;88.50;;;;;;5097987;28;20028;-82
2023/10/15 12:10:34;;;;;;;1.75;0.55;;;13.50;84.30;;;;;;5098949;28;20039;-82
2023/10/15 12:13:00;;;;;;;0.63;0.40;;;13.40;86.10;;;;;;5100080;28;20027;-82
2023/10/15 12:15:30;;;;;;;3.05;1.40;;;13.20;85.90;;;;;;5116937;28;20035;-82
2023/10/15 12:17:56;;;;;;;1.38;0.50;;;13.10;87.00;;;;;;5114562;28;20107;-82
2023/10/15 12:20:24;;;;;;;5.85;0.75;;;13.10;87.80;;;;;;5115061;28;20043;-82
2023/10/15 12:22:50;;;;;;;3.40;0.77;;;13.10;87.80;;;;;;5116195;28;20028;-82
2023/10/15 12:25:16;;;;;;;2.92;0.90;;;13.10;88.30;;;;;;5116152;28;20042;-82
2023/10/15 12:27:41;;;;;;;6.25;1.00;;;13.00;88.90;;;;;;5114161;28;20038;-81
2023/10/15 12:30:16;;;;;;;4.85;1.05;;;13.00;89.80;;;;;;5098984;28;20032;-82
2023/10/15 12:32:42;;;;;;;2.45;0.47;;;13.10;90.30;;;;;;5116252;28;20024;-81
2023/10/15 12:35:11;;;;;;;3.38;0.80;;;13.00;90.80;;;;;;5098570;28;20038;-80
2023/10/15 12:37:37;;;;;;;4.53;0.47;;;12.80;91.00;;;;;;5094459;28;20028;-81
2023/10/15 12:40:12;;;;;;;0.80;0.30;;;12.60;90.50;;;;;;5060250;28;20032;-81
2023/10/15 12:42:39;;;;;;;1.75;0.30;;;12.60;90.50;;;;;;5095812;28;20024;-81
2023/10/15 12:45:09;;;;;;;0.43;0.22;;;12.50;90.70;;;;;;5061614;28;20028;-81
2023/10/15 12:47:36;;;;;;;0.50;0.20;;;12.40;90.90;;;;;;5073214;28;20024;-81
2023/10/15 12:50:04;;;;;;;0.93;0.20;;;12.30;90.70;;;;;;5093771;28;20173;-81
2023/10/15 12:52:31;;;;;;;0.95;0.30;;;12.30;91.00;;;;;;5093528;28;20020;-81
2023/10/15 12:54:58;;;;;;;2.17;0.40;;;12.30;91.50;;;;;;5075665;28;20020;-81
2023/10/15 12:57:24;;;;;;;1.15;0.20;;;12.40;91.80;;;;;;5110491;28;20505;-81
2023/10/15 12:59:50;;;;;;;1.25;0.28;;;12.40;91.80;;;;;;5092844;28;20028;-81
2023/10/15 13:02:17;;;;;;;1.65;0.22;;;12.50;91.80;;;;;;5084057;28;20086;-82
2023/10/15 13:04:43;;;;;;;1.48;0.52;;;12.40;92.30;;;;;;5080439;28;20477;-81
2023/10/15 13:07:10;;;;;;;3.33;0.68;;;12.40;92.20;;;;;;5096806;28;20020;-82
2023/10/15 13:09:38;;;;;;;0.30;0.28;;;12.40;92.80;;;;;;5112459;28;20055;-82
2023/10/15 13:12:06;;;;;;;3.38;0.77;;;12.50;92.40;;;;;;5080463;28;20065;-81
2023/10/15 13:14:33;;;;;;;1.38;0.70;;;12.70;92.10;;;;;;5112994;28;20055;-82
2023/10/15 13:16:59;;;;;;;1.60;0.47;;;12.70;92.40;;;;;;5113639;28;20038;-83
2023/10/15 13:19:26;;;;;;;1.00;0.40;;;12.90;92.80;;;;;;5115674;28;20438;-82
2023/10/15 13:21:52;;;;;;;3.65;0.63;;;13.10;92.20;;;;;;5116895;28;20023;-82